sensor_id;sensor_type;location;lat;lon;timestamp;P1;durP1;ratioP1;P2;durP2;ratioP2
10497;SDS011;5296;51.060;13.750;2023-09-19T00:03:42;4.18;;;3.53;;
10497;SDS011;5296;51.060;13.750;2023-09-19T00:08:44;4.90;;;3.30;;
10497;SDS011;5296;51.060;13.750;2023-09-19T00:13:47;5.35;;;3.13;;
10497;SDS011;5296;51.060;13.750;2023-09-19T00:18:51;3.75;;;3.28;;
10497;SDS011;5296;51.060;13.750;2023-09-19T00:23:53;3.42;;;3.13;;
10497;SDS011;5296;51.060;13.750;2023-09-19T00:28:56;3.95;;;3.53;;
10497;SDS011;5296;51.060;13.750;2023-09-19T00:33:58;4.25;;;3.38;;
10497;SDS011;5296;51.060;13.750;2023-09-19T00:39:05;5.45;;;4.00;;
10497;SDS011;5296;51.060;13.750;2023-09-19T00:44:07;4.40;;;4.00;;
10497;SDS011;5296;51.060;13.750;2023-09-19T00:49:10;4.82;;;4.00;;
10497;SDS011;5296;51.060;13.750;2023-09-19T00:54:13;7.63;;;4.35;;
10497;SDS011;5296;51.060;13.750;2023-09-19T00:59:19;6.30;;;3.88;;
10497;SDS011;5296;51.060;13.750;2023-09-19T01:04:23;4.68;;;4.18;;
10497;SDS011;5296;51.060;13.750;2023-09-19T01:09:26;4.82;;;4.40;;
10497;SDS011;5296;51.060;13.750;2023-09-19T01:30:08;6.38;;;5.60;;
10497;SDS011;5296;51.060;13.750;2023-09-19T01:35:11;6.60;;;5.65;;
10497;SDS011;5296;51.060;13.750;2023-09-19T01:40:15;6.25;;;5.55;;
10497;SDS011;5296;51.060;13.750;2023-09-19T01:50:43;5.97;;;5.20;;
10497;SDS011;5296;51.060;13.750;2023-09-19T01:55:49;6.32;;;5.68;;
10497;SDS011;5296;51.060;13.750;2023-09-19T02:00:52;5.30;;;4.88;;
10497;SDS011;5296;51.060;13.750;2023-09-19T02:05:56;5.78;;;5.22;;
10497;SDS011;5296;51.060;13.750;2023-09-19T02:10:57;6.00;;;5.22;;
10497;SDS011;5296;51.060;13.750;2023-09-19T02:15:59;5.20;;;4.80;;
10497;SDS011;5296;51.060;13.750;2023-09-19T02:21:01;6.47;;;5.40;;
10497;SDS011;5296;51.060;13.750;2023-09-19T02:26:03;5.93;;;5.32;;
10497;SDS011;5296;51.060;13.750;2023-09-19T02:31:06;5.35;;;4.95;;
10497;SDS011;5296;51.060;13.750;2023-09-19T02:36:07;5.00;;;4.60;;
10497;SDS011;5296;51.060;13.750;2023-09-19T02:41:10;7.75;;;4.25;;
10497;SDS011;5296;51.060;13.750;2023-09-19T02:46:12;4.72;;;3.60;;
10497;SDS011;5296;51.060;13.750;2023-09-19T02:51:14;4.85;;;4.15;;
10497;SDS011;5296;51.060;13.750;2023-09-19T02:56:16;6.13;;;3.80;;
10497;SDS011;5296;51.060;13.750;2023-09-19T03:01:18;6.10;;;3.58;;
10497;SDS011;5296;51.060;13.750;2023-09-19T03:06:20;5.63;;;4.10;;
10497;SDS011;5296;51.060;13.750;2023-09-19T03:11:23;4.18;;;3.78;;
10497;SDS011;5296;51.060;13.750;2023-09-19T03:16:29;4.38;;;3.97;;
10497;SDS011;5296;51.060;13.750;2023-09-19T03:21:33;3.35;;;3.05;;
10497;SDS011;5296;51.060;13.750;2023-09-19T03:26:36;2.90;;;2.47;;
10497;SDS011;5296;51.060;13.750;2023-09-19T03:31:38;2.38;;;2.10;;
10497;SDS011;5296;51.060;13.750;2023-09-19T03:36:42;3.10;;;2.17;;
10497;SDS011;5296;51.060;13.750;2023-09-19T03:41:44;1.95;;;1.80;;
10497;SDS011;5296;51.060;13.750;2023-09-19T03:46:46;3.20;;;1.98;;
10497;SDS011;5296;51.060;13.750;2023-09-19T03:51:48;3.58;;;1.88;;
10497;SDS011;5296;51.060;13.750;2023-09-19T03:56:50;1.83;;;1.50;;
10497;SDS011;5296;51.060;13.750;2023-09-19T04:01:52;2.33;;;1.55;;
10497;SDS011;5296;51.060;13.750;2023-09-19T04:06:57;4.72;;;1.67;;
10497;SDS011;5296;51.060;13.750;2023-09-19T04:12:01;3.25;;;1.50;;
10497;SDS011;5296;51.060;13.750;2023-09-19T04:17:02;2.22;;;1.40;;
10497;SDS011;5296;51.060;13.750;2023-09-19T04:22:05;2.85;;;1.50;;
10497;SDS011;5296;51.060;13.750;2023-09-19T04:27:06;3.00;;;1.55;;
10497;SDS011;5296;51.060;13.750;2023-09-19T04:32:08;1.75;;;1.65;;
10497;SDS011;5296;51.060;13.750;2023-09-19T04:37:11;2.10;;;1.55;;
10497;SDS011;5296;51.060;13.750;2023-09-19T04:42:13;2.65;;;1.50;;
10497;SDS011;5296;51.060;13.750;2023-09-19T04:47:15;3.55;;;1.60;;
10497;SDS011;5296;51.060;13.750;2023-09-19T04:52:17;1.50;;;1.10;;
10497;SDS011;5296;51.060;13.750;2023-09-19T04:57:20;3.72;;;1.63;;
10497;SDS011;5296;51.060;13.750;2023-09-19T05:02:22;1.73;;;1.38;;
10497;SDS011;5296;51.060;13.750;2023-09-19T05:07:23;3.35;;;1.50;;
10497;SDS011;5296;51.060;13.750;2023-09-19T05:12:27;3.40;;;1.10;;
10497;SDS011;5296;51.060;13.750;2023-09-19T05:17:29;2.15;;;1.48;;
10497;SDS011;5296;51.060;13.750;2023-09-19T05:22:31;3.08;;;1.38;;
10497;SDS011;5296;51.060;13.750;2023-09-19T05:27:34;1.40;;;1.30;;
10497;SDS011;5296;51.060;13.750;2023-09-19T05:32:35;2.75;;;1.73;;
10497;SDS011;5296;51.060;13.750;2023-09-19T05:37:37;1.50;;;1.27;;
10497;SDS011;5296;51.060;13.750;2023-09-19T05:42:39;2.90;;;1.35;;
10497;SDS011;5296;51.060;13.750;2023-09-19T05:47:43;3.22;;;2.20;;
10497;SDS011;5296;51.060;13.750;2023-09-19T05:52:53;3.03;;;1.63;;
10497;SDS011;5296;51.060;13.750;2023-09-19T05:57:55;1.70;;;1.48;;
10497;SDS011;5296;51.060;13.750;2023-09-19T06:02:57;3.72;;;1.52;;
10497;SDS011;5296;51.060;13.750;2023-09-19T06:08:00;3.45;;;1.73;;
10497;SDS011;5296;51.060;13.750;2023-09-19T06:13:03;1.50;;;1.40;;
10497;SDS011;5296;51.060;13.750;2023-09-19T06:18:11;3.20;;;1.67;;
10497;SDS011;5296;51.060;13.750;2023-09-19T06:23:18;5.65;;;1.85;;
10497;SDS011;5296;51.060;13.750;2023-09-19T06:28:21;4.72;;;2.00;;
10497;SDS011;5296;51.060;13.750;2023-09-19T06:33:27;2.80;;;1.80;;
10497;SDS011;5296;51.060;13.750;2023-09-19T06:38:28;2.20;;;2.00;;
10497;SDS011;5296;51.060;13.750;2023-09-19T06:43:31;4.28;;;1.60;;
10497;SDS011;5296;51.060;13.750;2023-09-19T06:48:34;2.63;;;1.48;;
10497;SDS011;5296;51.060;13.750;2023-09-19T06:53:36;2.55;;;1.40;;
10497;SDS011;5296;51.060;13.750;2023-09-19T06:58:37;1.58;;;1.48;;
10497;SDS011;5296;51.060;13.750;2023-09-19T07:03:39;4.60;;;1.63;;
10497;SDS011;5296;51.060;13.750;2023-09-19T07:08:41;2.65;;;1.77;;
10497;SDS011;5296;51.060;13.750;2023-09-19T07:13:43;1.38;;;1.13;;
10497;SDS011;5296;51.060;13.750;2023-09-19T07:18:45;3.33;;;1.50;;
10497;SDS011;5296;51.060;13.750;2023-09-19T07:23:46;3.88;;;1.30;;
10497;SDS011;5296;51.060;13.750;2023-09-19T07:28:48;2.85;;;1.30;;
10497;SDS011;5296;51.060;13.750;2023-09-19T07:33:50;5.53;;;1.60;;
10497;SDS011;5296;51.060;13.750;2023-09-19T07:38:53;3.45;;;1.20;;
10497;SDS011;5296;51.060;13.750;2023-09-19T07:44:04;3.47;;;1.50;;
10497;SDS011;5296;51.060;13.750;2023-09-19T07:49:06;3.88;;;1.70;;
10497;SDS011;5296;51.060;13.750;2023-09-19T07:54:07;3.78;;;1.30;;
10497;SDS011;5296;51.060;13.750;2023-09-19T07:59:09;2.65;;;1.70;;
10497;SDS011;5296;51.060;13.750;2023-09-19T08:04:14;1.83;;;1.30;;
10497;SDS011;5296;51.060;13.750;2023-09-19T08:09:15;3.97;;;1.40;;
10497;SDS011;5296;51.060;13.750;2023-09-19T08:14:26;6.85;;;1.65;;
10497;SDS011;5296;51.060;13.750;2023-09-19T08:19:27;1.33;;;1.23;;
10497;SDS011;5296;51.060;13.750;2023-09-19T08:24:29;2.53;;;1.20;;
10497;SDS011;5296;51.060;13.750;2023-09-19T08:29:31;1.85;;;1.00;;
10497;SDS011;5296;51.060;13.750;2023-09-19T08:34:34;1.42;;;1.25;;
10497;SDS011;5296;51.060;13.750;2023-09-19T08:39:39;2.33;;;1.83;;
10497;SDS011;5296;51.060;13.750;2023-09-19T08:44:41;2.92;;;1.30;;
10497;SDS011;5296;51.060;13.750;2023-09-19T08:55:23;15.95;;;2.00;;
10497;SDS011;5296;51.060;13.750;2023-09-19T09:00:28;2.78;;;1.50;;
10497;SDS011;5296;51.060;13.750;2023-09-19T09:05:31;5.35;;;1.33;;
10497;SDS011;5296;51.060;13.750;2023-09-19T09:10:33;3.92;;;1.55;;
10497;SDS011;5296;51.060;13.750;2023-09-19T09:15:35;12.13;;;1.70;;
10497;SDS011;5296;51.060;13.750;2023-09-19T09:20:38;3.45;;;1.20;;
10497;SDS011;5296;51.060;13.750;2023-09-19T09:25:50;3.17;;;1.30;;
10497;SDS011;5296;51.060;13.750;2023-09-19T09:30:57;2.45;;;1.42;;
10497;SDS011;5296;51.060;13.750;2023-09-19T09:36:09;3.50;;;1.13;;
10497;SDS011;5296;51.060;13.750;2023-09-19T09:41:17;2.72;;;1.20;;
10497;SDS011;5296;51.060;13.750;2023-09-19T09:46:29;1.45;;;1.23;;
10497;SDS011;5296;51.060;13.750;2023-09-19T09:51:32;9.07;;;2.47;;
10497;SDS011;5296;51.060;13.750;2023-09-19T09:56:34;4.40;;;1.20;;
10497;SDS011;5296;51.060;13.750;2023-09-19T10:01:46;5.97;;;1.70;;
10497;SDS011;5296;51.060;13.750;2023-09-19T10:06:49;1.88;;;1.50;;
10497;SDS011;5296;51.060;13.750;2023-09-19T10:12:26;4.22;;;1.67;;
10497;SDS011;5296;51.060;13.750;2023-09-19T10:17:21;1.60;;;1.20;;
10497;SDS011;5296;51.060;13.750;2023-09-19T10:22:28;3.72;;;1.20;;
10497;SDS011;5296;51.060;13.750;2023-09-19T10:27:32;2.72;;;1.30;;
10497;SDS011;5296;51.060;13.750;2023-09-19T10:32:39;2.88;;;1.40;;
10497;SDS011;5296;51.060;13.750;2023-09-19T10:37:43;2.03;;;1.20;;
10497;SDS011;5296;51.060;13.750;2023-09-19T10:42:47;4.38;;;1.63;;
10497;SDS011;5296;51.060;13.750;2023-09-19T10:47:50;1.48;;;1.30;;
10497;SDS011;5296;51.060;13.750;2023-09-19T10:52:53;2.60;;;1.50;;
10497;SDS011;5296;51.060;13.750;2023-09-19T10:57:59;2.35;;;1.35;;
10497;SDS011;5296;51.060;13.750;2023-09-19T11:03:17;13.70;;;1.77;;
10497;SDS011;5296;51.060;13.750;2023-09-19T11:08:52;3.28;;;1.30;;
10497;SDS011;5296;51.060;13.750;2023-09-19T11:30:34;4.75;;;1.83;;
10497;SDS011;5296;51.060;13.750;2023-09-19T11:46:22;2.17;;;1.70;;
10497;SDS011;5296;51.060;13.750;2023-09-19T11:51:24;2.35;;;1.63;;
10497;SDS011;5296;51.060;13.750;2023-09-19T11:56:29;1.63;;;1.52;;
10497;SDS011;5296;51.060;13.750;2023-09-19T12:01:33;3.22;;;1.70;;
10497;SDS011;5296;51.060;13.750;2023-09-19T12:06:36;2.58;;;1.60;;
10497;SDS011;5296;51.060;13.750;2023-09-19T12:11:41;3.58;;;1.90;;
10497;SDS011;5296;51.060;13.750;2023-09-19T12:16:50;3.78;;;2.25;;
10497;SDS011;5296;51.060;13.750;2023-09-19T12:21:57;2.50;;;1.70;;
10497;SDS011;5296;51.060;13.750;2023-09-19T12:27:07;2.65;;;1.60;;
10497;SDS011;5296;51.060;13.750;2023-09-19T12:32:09;23.00;;;3.30;;
10497;SDS011;5296;51.060;13.750;2023-09-19T12:37:11;7.72;;;1.85;;
10497;SDS011;5296;51.060;13.750;2023-09-19T12:42:17;8.00;;;2.25;;
10497;SDS011;5296;51.060;13.750;2023-09-19T12:47:20;2.67;;;1.60;;
10497;SDS011;5296;51.060;13.750;2023-09-19T12:52:25;2.42;;;1.52;;
10497;SDS011;5296;51.060;13.750;2023-09-19T12:57:27;8.93;;;1.85;;
10497;SDS011;5296;51.060;13.750;2023-09-19T13:02:29;4.93;;;1.60;;
10497;SDS011;5296;51.060;13.750;2023-09-19T13:07:44;8.77;;;2.17;;
10497;SDS011;5296;51.060;13.750;2023-09-19T13:12:48;1.63;;;1.38;;
10497;SDS011;5296;51.060;13.750;2023-09-19T13:17:50;2.90;;;1.40;;
10497;SDS011;5296;51.060;13.750;2023-09-19T13:22:51;2.65;;;1.40;;
10497;SDS011;5296;51.060;13.750;2023-09-19T13:27:56;4.97;;;1.70;;
10497;SDS011;5296;51.060;13.750;2023-09-19T13:33:05;2.38;;;1.35;;
10497;SDS011;5296;51.060;13.750;2023-09-19T13:38:12;2.70;;;1.63;;
10497;SDS011;5296;51.060;13.750;2023-09-19T13:43:14;2.17;;;1.50;;
10497;SDS011;5296;51.060;13.750;2023-09-19T13:48:15;2.50;;;1.48;;
10497;SDS011;5296;51.060;13.750;2023-09-19T13:53:21;1.88;;;1.40;;
10497;SDS011;5296;51.060;13.750;2023-09-19T13:58:23;2.17;;;1.60;;
10497;SDS011;5296;51.060;13.750;2023-09-19T14:03:25;2.55;;;1.30;;
10497;SDS011;5296;51.060;13.750;2023-09-19T14:08:29;2.72;;;1.48;;
10497;SDS011;5296;51.060;13.750;2023-09-19T14:13:31;2.53;;;1.50;;
10497;SDS011;5296;51.060;13.750;2023-09-19T14:18:33;3.92;;;1.63;;
10497;SDS011;5296;51.060;13.750;2023-09-19T14:23:36;2.38;;;1.60;;
10497;SDS011;5296;51.060;13.750;2023-09-19T14:28:38;2.00;;;1.60;;
10497;SDS011;5296;51.060;13.750;2023-09-19T14:33:40;2.15;;;1.65;;
10497;SDS011;5296;51.060;13.750;2023-09-19T14:38:42;2.25;;;1.33;;
10497;SDS011;5296;51.060;13.750;2023-09-19T14:43:45;1.67;;;1.27;;
10497;SDS011;5296;51.060;13.750;2023-09-19T14:48:47;3.38;;;1.83;;
10497;SDS011;5296;51.060;13.750;2023-09-19T14:53:48;3.33;;;1.92;;
10497;SDS011;5296;51.060;13.750;2023-09-19T14:58:50;3.92;;;1.83;;
10497;SDS011;5296;51.060;13.750;2023-09-19T15:03:52;2.20;;;2.00;;
10497;SDS011;5296;51.060;13.750;2023-09-19T15:08:56;2.65;;;1.80;;
10497;SDS011;5296;51.060;13.750;2023-09-19T15:13:58;2.83;;;1.83;;
10497;SDS011;5296;51.060;13.750;2023-09-19T15:19:00;2.53;;;1.60;;
10497;SDS011;5296;51.060;13.750;2023-09-19T15:24:02;2.55;;;2.00;;
10497;SDS011;5296;51.060;13.750;2023-09-19T15:29:07;3.60;;;1.90;;
10497;SDS011;5296;51.060;13.750;2023-09-19T15:34:09;1.90;;;1.73;;
10497;SDS011;5296;51.060;13.750;2023-09-19T15:39:11;3.05;;;2.10;;
10497;SDS011;5296;51.060;13.750;2023-09-19T15:44:14;2.70;;;1.90;;
10497;SDS011;5296;51.060;13.750;2023-09-19T15:49:17;1.80;;;1.63;;
10497;SDS011;5296;51.060;13.750;2023-09-19T15:54:18;2.28;;;2.08;;
10497;SDS011;5296;51.060;13.750;2023-09-19T15:59:20;3.50;;;1.70;;
10497;SDS011;5296;51.060;13.750;2023-09-19T16:04:22;2.83;;;1.63;;
10497;SDS011;5296;51.060;13.750;2023-09-19T16:09:23;1.77;;;1.60;;
10497;SDS011;5296;51.060;13.750;2023-09-19T16:14:25;3.58;;;1.80;;
10497;SDS011;5296;51.060;13.750;2023-09-19T16:19:30;2.88;;;2.22;;
10497;SDS011;5296;51.060;13.750;2023-09-19T16:24:32;4.53;;;1.88;;
10497;SDS011;5296;51.060;13.750;2023-09-19T16:29:35;7.47;;;2.50;;
10497;SDS011;5296;51.060;13.750;2023-09-19T16:34:37;4.28;;;2.17;;
10497;SDS011;5296;51.060;13.750;2023-09-19T16:39:39;3.85;;;2.20;;
10497;SDS011;5296;51.060;13.750;2023-09-19T16:44:41;3.38;;;2.28;;
10497;SDS011;5296;51.060;13.750;2023-09-19T16:49:42;3.40;;;1.90;;
10497;SDS011;5296;51.060;13.750;2023-09-19T16:54:44;3.05;;;1.92;;
10497;SDS011;5296;51.060;13.750;2023-09-19T16:59:46;2.25;;;1.90;;
10497;SDS011;5296;51.060;13.750;2023-09-19T17:04:47;4.35;;;2.20;;
10497;SDS011;5296;51.060;13.750;2023-09-19T17:09:49;3.47;;;2.25;;
10497;SDS011;5296;51.060;13.750;2023-09-19T17:14:52;3.10;;;2.42;;
10497;SDS011;5296;51.060;13.750;2023-09-19T17:19:53;2.85;;;2.10;;
10497;SDS011;5296;51.060;13.750;2023-09-19T17:24:55;3.67;;;1.98;;
10497;SDS011;5296;51.060;13.750;2023-09-19T17:29:57;2.30;;;1.98;;
10497;SDS011;5296;51.060;13.750;2023-09-19T17:34:59;3.80;;;2.33;;
10497;SDS011;5296;51.060;13.750;2023-09-19T17:40:01;3.53;;;2.55;;
10497;SDS011;5296;51.060;13.750;2023-09-19T17:45:06;3.40;;;2.10;;
10497;SDS011;5296;51.060;13.750;2023-09-19T17:50:08;4.60;;;2.72;;
10497;SDS011;5296;51.060;13.750;2023-09-19T17:55:13;3.83;;;2.47;;
10497;SDS011;5296;51.060;13.750;2023-09-19T18:00:15;3.72;;;2.55;;
10497;SDS011;5296;51.060;13.750;2023-09-19T18:05:17;3.13;;;2.40;;
10497;SDS011;5296;51.060;13.750;2023-09-19T18:10:20;3.42;;;2.50;;
10497;SDS011;5296;51.060;13.750;2023-09-19T18:15:21;3.20;;;2.58;;
10497;SDS011;5296;51.060;13.750;2023-09-19T18:20:24;4.25;;;2.67;;
10497;SDS011;5296;51.060;13.750;2023-09-19T18:25:26;3.20;;;2.13;;
10497;SDS011;5296;51.060;13.750;2023-09-19T18:30:28;3.85;;;2.42;;
10497;SDS011;5296;51.060;13.750;2023-09-19T18:35:33;3.75;;;2.30;;
10497;SDS011;5296;51.060;13.750;2023-09-19T18:40:35;4.18;;;2.50;;
10497;SDS011;5296;51.060;13.750;2023-09-19T18:45:38;3.08;;;2.28;;
10497;SDS011;5296;51.060;13.750;2023-09-19T18:50:42;3.15;;;2.50;;
10497;SDS011;5296;51.060;13.750;2023-09-19T18:55:44;5.05;;;3.95;;
10497;SDS011;5296;51.060;13.750;2023-09-19T19:00:47;6.43;;;4.55;;
10497;SDS011;5296;51.060;13.750;2023-09-19T19:05:51;3.78;;;3.10;;
10497;SDS011;5296;51.060;13.750;2023-09-19T19:10:54;3.95;;;3.00;;
10497;SDS011;5296;51.060;13.750;2023-09-19T19:15:59;5.10;;;2.60;;
10497;SDS011;5296;51.060;13.750;2023-09-19T19:21:02;3.13;;;2.55;;
10497;SDS011;5296;51.060;13.750;2023-09-19T19:26:08;3.83;;;2.70;;
10497;SDS011;5296;51.060;13.750;2023-09-19T19:31:11;3.72;;;2.20;;
10497;SDS011;5296;51.060;13.750;2023-09-19T19:36:13;3.08;;;2.67;;
10497;SDS011;5296;51.060;13.750;2023-09-19T19:41:16;9.13;;;2.95;;
10497;SDS011;5296;51.060;13.750;2023-09-19T19:46:17;4.22;;;2.70;;
10497;SDS011;5296;51.060;13.750;2023-09-19T19:51:19;3.60;;;2.80;;
10497;SDS011;5296;51.060;13.750;2023-09-19T19:56:21;4.00;;;2.60;;
10497;SDS011;5296;51.060;13.750;2023-09-19T20:01:23;3.60;;;2.65;;
10497;SDS011;5296;51.060;13.750;2023-09-19T20:06:25;4.22;;;2.75;;
10497;SDS011;5296;51.060;13.750;2023-09-19T20:11:27;3.83;;;2.40;;
10497;SDS011;5296;51.060;13.750;2023-09-19T20:16:30;3.75;;;2.70;;
10497;SDS011;5296;51.060;13.750;2023-09-19T20:21:33;3.05;;;2.50;;
10497;SDS011;5296;51.060;13.750;2023-09-19T20:26:37;2.90;;;2.60;;
10497;SDS011;5296;51.060;13.750;2023-09-19T20:31:40;4.97;;;2.78;;
10497;SDS011;5296;51.060;13.750;2023-09-19T20:36:41;3.50;;;2.92;;
10497;SDS011;5296;51.060;13.750;2023-09-19T20:41:43;5.07;;;3.20;;
10497;SDS011;5296;51.060;13.750;2023-09-19T20:46:46;6.60;;;3.15;;
10497;SDS011;5296;51.060;13.750;2023-09-19T20:51:52;5.25;;;4.18;;
10497;SDS011;5296;51.060;13.750;2023-09-19T20:56:53;4.68;;;3.30;;
10497;SDS011;5296;51.060;13.750;2023-09-19T21:01:56;9.65;;;3.40;;
10497;SDS011;5296;51.060;13.750;2023-09-19T21:06:59;6.28;;;2.95;;
10497;SDS011;5296;51.060;13.750;2023-09-19T21:12:00;5.03;;;2.97;;
10497;SDS011;5296;51.060;13.750;2023-09-19T21:17:03;4.97;;;3.15;;
10497;SDS011;5296;51.060;13.750;2023-09-19T21:22:05;5.63;;;2.85;;
10497;SDS011;5296;51.060;13.750;2023-09-19T21:27:06;4.10;;;2.97;;
10497;SDS011;5296;51.060;13.750;2023-09-19T21:32:08;4.32;;;3.40;;
10497;SDS011;5296;51.060;13.750;2023-09-19T21:37:10;3.70;;;2.90;;
10497;SDS011;5296;51.060;13.750;2023-09-19T21:42:15;5.32;;;3.25;;
10497;SDS011;5296;51.060;13.750;2023-09-19T21:47:17;4.55;;;3.28;;
10497;SDS011;5296;51.060;13.750;2023-09-19T21:52:19;3.70;;;2.80;;
10497;SDS011;5296;51.060;13.750;2023-09-19T21:57:21;4.07;;;2.95;;
10497;SDS011;5296;51.060;13.750;2023-09-19T22:02:22;5.60;;;3.30;;
10497;SDS011;5296;51.060;13.750;2023-09-19T22:07:24;4.03;;;3.05;;
10497;SDS011;5296;51.060;13.750;2023-09-19T22:12:26;6.60;;;3.25;;
10497;SDS011;5296;51.060;13.750;2023-09-19T22:17:28;3.88;;;3.15;;
10497;SDS011;5296;51.060;13.750;2023-09-19T22:22:30;4.40;;;3.00;;
10497;SDS011;5296;51.060;13.750;2023-09-19T22:27:32;3.13;;;2.83;;
10497;SDS011;5296;51.060;13.750;2023-09-19T22:32:36;3.30;;;2.58;;
10497;SDS011;5296;51.060;13.750;2023-09-19T22:37:38;3.67;;;2.72;;
10497;SDS011;5296;51.060;13.750;2023-09-19T22:42:39;4.50;;;3.05;;
10497;SDS011;5296;51.060;13.750;2023-09-19T22:47:42;5.13;;;3.35;;
10497;SDS011;5296;51.060;13.750;2023-09-19T22:52:45;6.80;;;3.58;;
10497;SDS011;5296;51.060;13.750;2023-09-19T22:57:52;4.68;;;3.00;;
10497;SDS011;5296;51.060;13.750;2023-09-19T23:02:55;3.10;;;2.58;;
10497;SDS011;5296;51.060;13.750;2023-09-19T23:07:57;4.32;;;2.83;;
10497;SDS011;5296;51.060;13.750;2023-09-19T23:13:01;4.78;;;2.80;;
10497;SDS011;5296;51.060;13.750;2023-09-19T23:18:04;3.88;;;2.40;;
10497;SDS011;5296;51.060;13.750;2023-09-19T23:23:12;3.55;;;2.58;;
10497;SDS011;5296;51.060;13.750;2023-09-19T23:28:17;4.97;;;2.80;;
10497;SDS011;5296;51.060;13.750;2023-09-19T23:33:21;2.75;;;2.33;;
10497;SDS011;5296;51.060;13.750;2023-09-19T23:38:23;4.55;;;2.67;;
10497;SDS011;5296;51.060;13.750;2023-09-19T23:43:25;3.08;;;2.65;;
10497;SDS011;5296;51.060;13.750;2023-09-19T23:48:26;2.97;;;2.08;;
10497;SDS011;5296;51.060;13.750;2023-09-19T23:53:29;3.15;;;2.45;;
10497;SDS011;5296;51.060;13.750;2023-09-19T23:58:31;3.28;;;2.50;;
